OTBD/DOH METAR and TAF weather

Enter ICAO airport designator
Station Type Date Time Source
OTBD METAR 2023/06/01 09:00 UTC NOAA

OTBD 010900Z AUTO 32014G24KT 290V360 CAVOK 40/15 Q1007 NOSIG


Station Type Date Time Source
OTBD Decoded METAR 2023/06/01 09:00 UTC NOAA

Doha International Airport, Qatar (OTBD) 25-15N 051-34E 10M
Jun 01, 2023 - 05:00 AM EDT / 2023.06.01 0900 UTC
Wind: from the NW (320 degrees) at 16 MPH (14 KT) gusting to 28 MPH (24 KT) (direction variable):0
Visibility: greater than 7 mile(s):0
Temperature: 104 F (40 C)
Heat index: 104.7 F (40.4 C):1
Dew Point: 59 F (15 C)
Relative Humidity: 23%
Pressure (altimeter): 29.74 in. Hg (1007 hPa)
ob: OTBD 010900Z AUTO 32014G24KT 290V360 CAVOK 40/15 Q1007 NOSIG
cycle: 9

Station Type Date Time Source
OTBD TAF 2023/06/01 06:28 UTC NOAA

TAF COR OTBD 010525Z 0106/0212 33014KT CAVOK
TEMPO 0108/0118 04015KT PROB30
TEMPO 0109/0116 34016G26KT 5000 BLDU

Example: see airport list